createdAt,value
2023-04-18T00:00:19.223Z,100879.53
2023-04-18T00:01:09.970Z,100883.47
2023-04-18T00:01:51.240Z,100872.28
2023-04-18T00:02:33.323Z,100875.34
2023-04-18T00:03:16.576Z,100870.34
2023-04-18T00:04:04.570Z,100883.13
2023-04-18T00:04:58.327Z,100875.25
2023-04-18T00:05:55.224Z,100883.88
2023-04-18T00:06:49.214Z,100860.38
2023-04-18T00:07:43.210Z,100879.41
2023-04-18T00:08:37.156Z,100878.03
2023-04-18T00:09:24.242Z,100880.41
2023-04-18T00:09:58.209Z,100882.88
2023-04-18T00:10:45.220Z,100874.47
2023-04-18T00:11:19.310Z,100875.47
2023-04-18T00:12:06.163Z,100883.44
2023-04-18T00:12:40.281Z,100877.66
2023-04-18T00:13:27.180Z,100871.88
2023-04-18T00:14:01.222Z,100880.38
2023-04-18T00:14:48.243Z,100876.47
2023-04-18T00:15:22.225Z,100882.13
2023-04-18T00:16:09.277Z,100864.53
2023-04-18T00:16:43.415Z,100870.94
2023-04-18T00:17:33.284Z,100868.03
2023-04-18T00:18:08.489Z,100868.59
2023-04-18T00:18:56.162Z,100866.88
2023-04-18T00:19:30.308Z,100862.63
2023-04-18T00:20:19.235Z,100871.59
2023-04-18T00:21:00.361Z,100871.59
2023-04-18T00:21:41.206Z,100870.81
2023-04-18T00:22:22.877Z,100877.97
2023-04-18T00:23:03.172Z,100872.44
2023-04-18T00:23:43.389Z,100871.31
2023-04-18T00:24:23.298Z,100866.81
2023-04-18T00:25:03.410Z,100865.81
2023-04-18T00:25:43.250Z,100881.91
2023-04-18T00:26:23.375Z,100867.03
2023-04-18T00:27:03.146Z,100875.16
2023-04-18T00:27:48.430Z,100873.81
2023-04-18T00:28:28.185Z,100879.47
2023-04-18T00:29:10.219Z,100878.00
2023-04-18T00:29:50.163Z,100882.28
2023-04-18T00:30:30.351Z,100882.06
2023-04-18T00:31:11.319Z,100860.28
2023-04-18T00:31:51.220Z,100875.78
2023-04-18T00:32:31.201Z,100866.69
2023-04-18T00:33:11.284Z,100880.06
2023-04-18T00:33:52.143Z,100868.63
2023-04-18T00:34:32.243Z,100874.28
2023-04-18T00:35:13.198Z,100877.84
2023-04-18T00:35:53.289Z,100873.13
2023-04-18T00:36:34.230Z,100869.84
2023-04-18T00:37:15.287Z,100880.28
2023-04-18T00:37:55.157Z,100883.88
2023-04-18T00:38:35.246Z,100879.91
2023-04-18T00:39:16.191Z,100851.16
2023-04-18T00:39:56.296Z,100878.94
2023-04-18T00:40:36.167Z,100869.34
2023-04-18T00:41:16.458Z,100874.50
2023-04-18T00:41:56.152Z,100877.47
2023-04-18T00:42:36.239Z,100883.13
2023-04-18T00:43:20.223Z,100875.50
2023-04-18T00:44:01.316Z,100878.19
2023-04-18T00:44:41.169Z,100869.44
2023-04-18T00:45:21.667Z,100879.19
2023-04-18T00:46:03.196Z,100850.41
2023-04-18T00:46:43.223Z,100870.69
2023-04-18T00:47:24.262Z,100871.59
2023-04-18T00:48:04.298Z,100861.84
2023-04-18T00:48:45.120Z,100876.72
2023-04-18T00:49:25.313Z,100871.06
2023-04-18T00:50:06.146Z,100883.13
2023-04-18T00:50:46.298Z,100873.91
2023-04-18T00:51:27.138Z,100875.97
2023-04-18T00:52:07.232Z,100875.84
2023-04-18T00:52:48.193Z,100878.19
2023-04-18T00:53:29.244Z,100871.19
2023-04-18T00:54:13.395Z,100874.28
2023-04-18T00:54:54.249Z,100868.03
2023-04-18T00:55:36.126Z,100871.22
2023-04-18T00:56:16.428Z,100875.00
2023-04-18T00:56:58.152Z,100861.97
2023-04-18T00:57:38.263Z,100874.63
2023-04-18T00:58:19.186Z,100871.31
2023-04-18T00:58:59.291Z,100854.72
2023-04-18T00:59:43.128Z,100876.03
2023-04-18T01:00:23.187Z,100860.78
2023-04-18T01:01:03.223Z,100867.66
2023-04-18T01:01:45.186Z,100868.91
2023-04-18T01:02:26.452Z,100875.81
2023-04-18T01:03:08.715Z,100865.47
2023-04-18T01:03:50.316Z,100870.00
2023-04-18T01:04:30.351Z,100864.00
2023-04-18T01:05:11.172Z,100866.91
2023-04-18T01:05:52.551Z,100867.19
2023-04-18T01:06:34.143Z,100863.72
2023-04-18T01:07:14.216Z,100860.50
2023-04-18T01:07:55.181Z,100853.03
2023-04-18T01:08:36.486Z,100858.72
2023-04-18T01:09:17.260Z,100856.50
2023-04-18T01:09:57.270Z,100860.41
2023-04-18T01:10:38.244Z,100860.66
2023-04-18T01:11:18.212Z,100867.03
2023-04-18T01:11:59.233Z,100861.63
2023-04-18T01:12:39.262Z,100862.28
2023-04-18T01:13:21.159Z,100871.84
2023-04-18T01:14:13.390Z,100861.41
2023-04-18T01:14:53.200Z,100869.41
2023-04-18T01:15:33.274Z,100871.13
2023-04-18T01:16:14.154Z,100869.03
2023-04-18T01:16:54.700Z,100873.09
2023-04-18T01:17:36.249Z,100865.19
2023-04-18T01:18:17.259Z,100873.81
2023-04-18T01:18:57.190Z,100874.19
2023-04-18T01:19:37.808Z,100870.63
2023-04-18T01:20:20.127Z,100858.28
2023-04-18T01:21:01.255Z,100873.84
2023-04-18T01:21:43.124Z,100870.13
2023-04-18T01:22:24.218Z,100871.63
2023-04-18T01:23:05.134Z,100872.13
2023-04-18T01:23:45.282Z,100873.34
2023-04-18T01:24:26.115Z,100865.00
2023-04-18T01:25:06.206Z,100871.09
2023-04-18T01:25:47.132Z,100869.41
2023-04-18T01:26:27.216Z,100873.59
2023-04-18T01:27:09.124Z,100860.78
2023-04-18T01:27:49.219Z,100869.78
2023-04-18T01:28:30.198Z,100859.19
2023-04-18T01:29:11.233Z,100862.50
2023-04-18T01:29:51.123Z,100870.25
2023-04-18T01:30:31.207Z,100863.50
2023-04-18T01:31:12.236Z,100865.97
2023-04-18T01:31:52.201Z,100858.28
2023-04-18T01:32:33.194Z,100850.44
2023-04-18T01:33:13.212Z,100866.44
2023-04-18T01:33:53.122Z,100843.56
2023-04-18T01:34:33.196Z,100867.44
2023-04-18T01:35:14.145Z,100860.78
2023-04-18T01:35:54.206Z,100869.88
2023-04-18T01:36:35.199Z,100871.75
2023-04-18T01:37:15.283Z,100860.56
2023-04-18T01:37:55.086Z,100868.69
2023-04-18T01:38:35.270Z,100852.78
2023-04-18T01:39:16.130Z,100877.75
2023-04-18T01:39:58.244Z,100865.47
2023-04-18T01:40:39.148Z,100872.22
2023-04-18T01:41:19.181Z,100846.88
2023-04-18T01:41:59.157Z,100872.22
2023-04-18T01:42:39.228Z,100870.59
2023-04-18T01:43:19.090Z,100870.38
2023-04-18T01:43:59.295Z,100864.56
2023-04-18T01:44:40.123Z,100873.19
2023-04-18T01:45:20.255Z,100869.91
2023-04-18T01:46:00.160Z,100877.25
2023-04-18T01:46:40.937Z,100876.78
2023-04-18T01:47:21.142Z,100856.84
2023-04-18T01:48:01.334Z,100876.78
2023-04-18T01:48:42.129Z,100857.34
2023-04-18T01:49:23.170Z,100865.06
2023-04-18T01:50:03.110Z,100867.94
2023-04-18T01:50:43.250Z,100869.03
2023-04-18T01:51:23.086Z,100869.41
2023-04-18T01:52:03.177Z,100849.81
2023-04-18T01:52:44.392Z,100877.75
2023-04-18T01:53:25.671Z,100872.84
2023-04-18T01:54:06.076Z,100870.63
2023-04-18T01:54:47.196Z,100874.78
2023-04-18T01:55:28.105Z,100870.41
2023-04-18T01:56:10.165Z,100875.91
2023-04-18T01:56:51.158Z,100868.41
2023-04-18T01:57:31.175Z,100875.56
2023-04-18T01:58:11.172Z,100857.69
2023-04-18T01:58:51.212Z,100855.84
2023-04-18T01:59:31.090Z,100877.75
2023-04-18T02:00:13.204Z,100871.81
2023-04-18T02:00:54.153Z,100871.50
2023-04-18T02:01:34.347Z,100867.41
2023-04-18T02:03:16.190Z,100876.28
2023-04-18T02:03:50.484Z,100863.47
2023-04-18T02:04:38.120Z,100867.81
2023-04-18T02:05:12.205Z,100873.56
2023-04-18T02:05:59.050Z,100874.53
2023-04-18T02:06:33.183Z,100862.25
2023-04-18T02:07:20.114Z,100877.75
2023-04-18T02:07:54.164Z,100869.78
2023-04-18T02:08:42.469Z,100874.81
2023-04-18T02:09:16.260Z,100873.09
2023-04-18T02:10:03.171Z,100862.38
2023-04-18T02:10:37.165Z,100863.88
2023-04-18T02:11:24.125Z,100871.59
2023-04-18T02:11:59.500Z,100858.56
2023-04-18T02:12:47.048Z,100867.31
2023-04-18T02:13:21.110Z,100873.59
2023-04-18T02:14:02.247Z,100868.91
2023-04-18T02:14:43.316Z,100871.84
2023-04-18T02:15:23.102Z,100876.78
2023-04-18T02:16:03.232Z,100866.69
2023-04-18T02:16:44.125Z,100866.44
2023-04-18T02:17:24.608Z,100862.50
2023-04-18T02:18:08.088Z,100872.63
2023-04-18T02:19:03.106Z,100868.41
2023-04-18T02:19:58.065Z,100866.31
2023-04-18T02:20:52.082Z,100864.72
2023-04-18T02:21:48.099Z,100871.25
2023-04-18T02:22:42.041Z,100866.94
2023-04-18T02:23:37.478Z,100877.53
2023-04-18T02:24:25.126Z,100859.56
2023-04-18T02:24:59.159Z,100866.06
2023-04-18T02:25:46.043Z,100866.94
2023-04-18T02:26:20.338Z,100855.38
2023-04-18T02:27:07.064Z,100871.38
2023-04-18T02:27:41.178Z,100869.03
2023-04-18T02:28:28.036Z,100861.66
2023-04-18T02:29:02.316Z,100869.28
2023-04-18T02:29:49.075Z,100857.94
2023-04-18T02:30:23.213Z,100854.75
2023-04-18T02:31:10.069Z,100859.78
2023-04-18T02:31:47.214Z,100865.97
2023-04-18T02:32:34.115Z,100861.91
2023-04-18T02:33:08.251Z,100865.09
2023-04-18T02:33:55.117Z,100871.84
2023-04-18T02:34:29.152Z,100868.91
2023-04-18T02:35:10.077Z,100870.25
2023-04-18T02:35:50.208Z,100864.19
2023-04-18T02:36:33.100Z,100865.56
2023-04-18T02:37:13.167Z,100865.56
2023-04-18T02:37:53.042Z,100860.78
2023-04-18T02:38:33.186Z,100862.50
2023-04-18T02:39:13.092Z,100857.84
2023-04-18T02:39:53.141Z,100867.31
2023-04-18T02:40:34.060Z,100862.97
2023-04-18T02:41:17.490Z,100862.25
2023-04-18T02:41:57.041Z,100866.19
2023-04-18T02:42:38.211Z,100839.13
2023-04-18T02:43:18.033Z,100866.19
2023-04-18T02:43:58.225Z,100857.94
2023-04-18T02:44:39.040Z,100863.25
2023-04-18T02:45:19.131Z,100872.59
2023-04-18T02:45:59.066Z,100854.63
2023-04-18T02:46:39.153Z,100843.19
2023-04-18T02:47:19.073Z,100865.47
2023-04-18T02:47:59.269Z,100860.75
2023-04-18T02:48:40.083Z,100864.47
2023-04-18T02:49:20.232Z,100863.84
2023-04-18T02:50:01.025Z,100860.28
2023-04-18T02:50:41.138Z,100865.19
2023-04-18T02:51:21.063Z,100868.66
2023-04-18T02:52:02.104Z,100858.06
2023-04-18T02:52:43.004Z,100862.47
2023-04-18T02:53:25.020Z,100866.31
2023-04-18T02:54:05.044Z,100870.09
2023-04-18T02:54:45.192Z,100856.97
2023-04-18T02:55:33.066Z,100863.13
2023-04-18T02:56:07.124Z,100860.75
2023-04-18T02:56:49.035Z,100857.47
2023-04-18T02:57:30.170Z,100864.22
2023-04-18T02:58:10.059Z,100860.28
2023-04-18T02:58:50.206Z,100863.84
2023-04-18T02:59:30.039Z,100871.38
2023-04-18T03:00:11.131Z,100868.75
2023-04-18T03:00:51.055Z,100869.38
2023-04-18T03:01:31.127Z,100871.97
2023-04-18T03:02:18.122Z,100873.09
2023-04-18T03:02:53.153Z,100870.25
2023-04-18T03:03:40.071Z,100866.81
2023-04-18T03:04:14.921Z,100865.19
2023-04-18T03:05:03.204Z,100871.09
2023-04-18T03:05:36.892Z,100868.16
2023-04-18T03:06:24.017Z,100870.09
2023-04-18T03:07:18.097Z,100870.59
2023-04-18T03:08:12.082Z,100865.94
2023-04-18T03:09:08.062Z,100862.50
2023-04-18T03:10:02.098Z,100862.00
2023-04-18T03:10:56.449Z,100864.81
2023-04-18T03:11:50.997Z,100872.09
2023-04-18T03:12:38.062Z,100868.88
2023-04-18T03:13:12.105Z,100866.31
2023-04-18T03:14:00.067Z,100860.53
2023-04-18T03:14:34.107Z,100865.56
2023-04-18T03:15:22.032Z,100870.38
2023-04-18T03:15:56.388Z,100872.22
2023-04-18T03:16:43.015Z,100865.94
2023-04-18T03:17:17.171Z,100865.94
2023-04-18T03:17:58.141Z,100868.75
2023-04-18T03:18:38.100Z,100868.66
2023-04-18T03:19:18.019Z,100861.13
2023-04-18T03:19:58.101Z,100862.75
2023-04-18T03:20:39.051Z,100869.38
2023-04-18T03:21:19.790Z,100864.47
2023-04-18T03:22:01.044Z,100876.28
2023-04-18T03:22:41.111Z,100871.72
2023-04-18T03:23:21.024Z,100860.78
2023-04-18T03:24:01.070Z,100879.47
2023-04-18T03:24:42.058Z,100874.06
2023-04-18T03:25:22.063Z,100869.03
2023-04-18T03:26:02.068Z,100859.56
2023-04-18T03:26:46.899Z,100860.63
2023-04-18T03:27:27.001Z,100867.91
2023-04-18T03:28:07.094Z,100867.81
2023-04-18T03:28:48.007Z,100867.66
2023-04-18T03:29:28.086Z,100873.56
2023-04-18T03:30:09.002Z,100873.94
2023-04-18T03:30:49.044Z,100869.88
2023-04-18T03:31:29.013Z,100869.13
2023-04-18T03:32:09.183Z,100870.97
2023-04-18T03:32:50.088Z,100872.63
2023-04-18T03:33:30.097Z,100868.66
2023-04-18T03:34:09.991Z,100863.75
2023-04-18T03:34:50.283Z,100861.25
2023-04-18T03:35:30.153Z,100865.09
2023-04-18T03:36:10.150Z,100870.00
2023-04-18T03:36:50.971Z,100868.03
2023-04-18T03:37:31.118Z,100881.06
2023-04-18T03:38:10.952Z,100873.56
2023-04-18T03:38:51.067Z,100875.91
2023-04-18T03:39:31.024Z,100869.03
2023-04-18T03:40:12.069Z,100870.59
2023-04-18T03:40:53.177Z,100863.97
2023-04-18T03:41:34.127Z,100865.09
2023-04-18T03:42:13.969Z,100868.88
2023-04-18T03:42:54.099Z,100865.31
2023-04-18T03:43:33.991Z,100870.38
2023-04-18T03:44:14.326Z,100870.88
2023-04-18T03:44:56.072Z,100867.66
2023-04-18T03:45:36.127Z,100874.31
2023-04-18T03:46:15.977Z,100878.00
2023-04-18T03:46:57.268Z,100871.09
2023-04-18T03:47:39.008Z,100870.00
2023-04-18T03:48:20.489Z,100882.19
2023-04-18T03:49:00.977Z,100872.59
2023-04-18T03:49:41.263Z,100881.78
2023-04-18T03:50:20.978Z,100862.97
2023-04-18T03:51:01.120Z,100866.66
2023-04-18T03:51:51.000Z,100875.78
2023-04-18T03:52:31.068Z,100879.47
2023-04-18T03:53:11.966Z,100855.50
2023-04-18T03:53:52.093Z,100878.22
2023-04-18T03:54:32.009Z,100879.34
2023-04-18T03:55:13.496Z,100874.31
2023-04-18T03:55:54.005Z,100871.84
2023-04-18T03:56:34.025Z,100875.78
2023-04-18T03:57:14.942Z,100878.63
2023-04-18T03:57:55.069Z,100872.34
2023-04-18T03:58:35.018Z,100877.38
2023-04-18T03:59:15.667Z,100875.91
2023-04-18T03:59:55.974Z,100875.78
2023-04-18T04:00:36.149Z,100877.50
2023-04-18T04:01:17.017Z,100868.66
2023-04-18T04:01:57.139Z,100881.06
2023-04-18T04:02:37.109Z,100874.78
2023-04-18T04:03:17.109Z,100855.63
2023-04-18T04:03:57.010Z,100867.03
2023-04-18T04:04:37.181Z,100883.16
2023-04-18T04:05:18.038Z,100873.06
2023-04-18T04:05:58.165Z,100881.69
2023-04-18T04:06:39.049Z,100880.34
2023-04-18T04:07:33.001Z,100880.44
2023-04-18T04:08:28.393Z,100883.63
2023-04-18T04:09:21.967Z,100877.50
2023-04-18T04:10:15.950Z,100877.72
2023-04-18T04:11:09.960Z,100880.94
2023-04-18T04:11:57.027Z,100881.06
2023-04-18T04:12:32.055Z,100882.56
2023-04-18T04:13:19.033Z,100888.47
2023-04-18T04:13:53.285Z,100881.69
2023-04-18T04:14:39.944Z,100886.59
2023-04-18T04:15:14.145Z,100871.22
2023-04-18T04:16:00.990Z,100884.63
2023-04-18T04:16:35.032Z,100882.91
2023-04-18T04:17:22.084Z,100877.72
2023-04-18T04:17:57.116Z,100887.69
2023-04-18T04:18:43.958Z,100889.91
2023-04-18T04:19:18.233Z,100886.13
2023-04-18T04:20:04.946Z,100887.84
2023-04-18T04:20:39.042Z,100893.88
2023-04-18T04:21:25.953Z,100895.47
2023-04-18T04:22:00.037Z,100869.16
2023-04-18T04:22:48.017Z,100883.16
2023-04-18T04:23:22.698Z,100891.25
2023-04-18T04:24:10.024Z,100884.94
2023-04-18T04:24:44.211Z,100884.31
2023-04-18T04:25:35.002Z,100893.75
2023-04-18T04:26:09.136Z,100878.34
2023-04-18T04:26:56.953Z,100899.38
2023-04-18T04:27:31.019Z,100888.81
2023-04-18T04:28:13.008Z,100896.94
2023-04-18T04:28:53.669Z,100872.31
2023-04-18T04:29:35.927Z,100892.53
2023-04-18T04:30:17.221Z,100893.00
2023-04-18T04:30:57.979Z,100873.56
2023-04-18T04:31:38.138Z,100896.56
2023-04-18T04:32:18.998Z,100896.22
2023-04-18T04:32:59.931Z,100895.59
2023-04-18T04:33:40.930Z,100867.41
2023-04-18T04:34:21.583Z,100895.47
2023-04-18T04:35:02.927Z,100900.72
2023-04-18T04:35:43.037Z,100888.47
2023-04-18T04:36:24.965Z,100896.44
2023-04-18T04:37:05.033Z,100898.44
2023-04-18T04:37:47.981Z,100901.84
2023-04-18T04:38:31.331Z,100896.69
2023-04-18T04:39:11.973Z,100897.66
2023-04-18T04:39:52.366Z,100893.38
2023-04-18T04:40:31.997Z,100905.19
2023-04-18T04:41:13.047Z,100909.25
2023-04-18T04:41:53.923Z,100907.63
2023-04-18T04:42:34.633Z,100887.31
2023-04-18T04:43:18.959Z,100895.72
2023-04-18T04:43:59.601Z,100878.00
2023-04-18T04:44:42.000Z,100895.72
2023-04-18T04:45:23.347Z,100900.38
2023-04-18T04:46:04.003Z,100903.13
2023-04-18T04:46:44.919Z,100901.03
2023-04-18T04:47:26.079Z,100906.56
2023-04-18T04:48:07.120Z,100893.38
2023-04-18T04:48:46.970Z,100908.28
2023-04-18T04:49:27.041Z,100900.91
2023-04-18T04:50:08.253Z,100901.25
2023-04-18T04:50:49.082Z,100904.59
2023-04-18T04:51:28.915Z,100902.88
2023-04-18T04:52:09.034Z,100906.56
2023-04-18T04:52:49.959Z,100900.53
2023-04-18T04:53:35.052Z,100891.56
2023-04-18T04:54:16.350Z,100900.91
2023-04-18T04:54:58.007Z,100897.56
2023-04-18T04:55:38.904Z,100907.53
2023-04-18T04:56:19.010Z,100890.56
2023-04-18T04:56:58.942Z,100912.34
2023-04-18T04:57:39.085Z,100906.06
2023-04-18T04:58:19.977Z,100912.09
2023-04-18T04:59:01.974Z,100916.78
2023-04-18T04:59:42.928Z,100915.56
2023-04-18T05:00:36.927Z,100899.91
2023-04-18T05:01:18.980Z,100912.22
2023-04-18T05:01:58.990Z,100904.47
2023-04-18T05:02:39.051Z,100909.75
2023-04-18T05:03:19.169Z,100918.63
2023-04-18T05:03:59.083Z,100917.63
2023-04-18T05:04:39.296Z,100918.84
2023-04-18T05:05:18.933Z,100901.88
2023-04-18T05:05:59.951Z,100906.81
2023-04-18T05:06:34.021Z,100895.97
2023-04-18T05:07:21.004Z,100910.38
2023-04-18T05:07:54.999Z,100901.38
2023-04-18T05:08:41.986Z,100916.41
2023-04-18T05:09:16.000Z,100912.09
2023-04-18T05:10:02.915Z,100912.44
2023-04-18T05:10:37.395Z,100919.34
2023-04-18T05:11:25.961Z,100913.94
2023-04-18T05:11:59.967Z,100909.00
2023-04-18T05:12:46.920Z,100904.47
2023-04-18T05:13:21.076Z,100922.69
2023-04-18T05:14:07.902Z,100905.81
2023-04-18T05:14:42.029Z,100920.84
2023-04-18T05:15:30.895Z,100914.44
2023-04-18T05:16:05.047Z,100922.78
2023-04-18T05:16:44.976Z,100921.41
2023-04-18T05:17:25.049Z,100917.84
2023-04-18T05:18:05.912Z,100917.00
2023-04-18T05:18:45.989Z,100916.91
2023-04-18T05:19:25.877Z,100920.56
2023-04-18T05:20:05.956Z,100920.81
2023-04-18T05:20:46.915Z,100913.94
2023-04-18T05:21:28.863Z,100919.34
2023-04-18T05:22:09.898Z,100926.72
2023-04-18T05:22:50.010Z,100924.25
2023-04-18T05:23:29.905Z,100920.31
2023-04-18T05:24:10.029Z,100923.75
2023-04-18T05:24:49.876Z,100920.56
2023-04-18T05:25:31.496Z,100922.91
2023-04-18T05:26:12.881Z,100922.19
2023-04-18T05:26:53.117Z,100931.88
2023-04-18T05:27:33.956Z,100919.69
2023-04-18T05:28:13.993Z,100920.56
2023-04-18T05:28:54.876Z,100924.88
2023-04-18T05:29:34.985Z,100926.72
2023-04-18T05:30:15.967Z,100912.09
2023-04-18T05:31:01.170Z,100925.25
2023-04-18T05:31:40.886Z,100917.63
2023-04-18T05:32:34.957Z,100926.25
2023-04-18T05:33:28.944Z,100901.03
2023-04-18T05:34:22.893Z,100922.06
2023-04-18T05:35:16.876Z,100928.19
2023-04-18T05:36:12.138Z,100923.03
2023-04-18T05:37:05.904Z,100918.63
2023-04-18T05:37:52.924Z,100930.19
2023-04-18T05:38:27.057Z,100932.16
2023-04-18T05:39:14.872Z,100938.06
2023-04-18T05:39:48.957Z,100930.94
2023-04-18T05:40:36.868Z,100934.09
2023-04-18T05:41:10.926Z,100924.16
2023-04-18T05:41:57.872Z,100931.53
2023-04-18T05:42:32.012Z,100936.31
2023-04-18T05:43:11.900Z,100922.56
2023-04-18T05:44:02.449Z,100929.44
2023-04-18T05:44:44.874Z,100931.03
2023-04-18T05:45:25.019Z,100937.56
2023-04-18T05:46:05.929Z,100935.72
2023-04-18T05:46:46.036Z,100930.81
2023-04-18T05:47:26.985Z,100927.97
2023-04-18T05:48:06.996Z,100928.66
2023-04-18T05:48:47.907Z,100928.41
2023-04-18T05:49:27.987Z,100919.31
2023-04-18T05:50:08.984Z,100931.63
2023-04-18T05:50:49.035Z,100924.38
2023-04-18T05:51:28.911Z,100923.25
2023-04-18T05:52:08.967Z,100928.66
2023-04-18T05:52:48.862Z,100931.41
2023-04-18T05:53:29.059Z,100917.63
2023-04-18T05:54:09.886Z,100920.84
2023-04-18T05:54:49.943Z,100907.00
2023-04-18T05:55:29.862Z,100936.09
2023-04-18T05:56:09.988Z,100914.16
2023-04-18T05:56:49.905Z,100930.94
2023-04-18T05:57:29.947Z,100939.06
2023-04-18T05:58:10.867Z,100926.25
2023-04-18T05:58:51.429Z,100926.00
2023-04-18T05:59:33.862Z,100938.44
2023-04-18T06:00:15.043Z,100929.56
2023-04-18T06:00:55.848Z,100925.53
2023-04-18T06:01:35.933Z,100927.72
2023-04-18T06:02:19.980Z,100929.19
2023-04-18T06:03:00.265Z,100928.69
2023-04-18T06:03:42.262Z,100940.63
2023-04-18T06:04:23.130Z,100931.88
2023-04-18T06:05:03.176Z,100943.09
2023-04-18T06:05:44.114Z,100934.59
2023-04-18T06:06:24.841Z,100931.66
2023-04-18T06:07:04.965Z,100928.22
2023-04-18T06:07:45.822Z,100937.44
2023-04-18T06:08:26.103Z,100940.00
2023-04-18T06:09:05.868Z,100931.28
2023-04-18T06:09:46.057Z,100937.94
2023-04-18T06:10:26.887Z,100930.81
2023-04-18T06:11:06.985Z,100927.09
2023-04-18T06:11:47.931Z,100946.63
2023-04-18T06:12:28.105Z,100940.25
2023-04-18T06:13:08.870Z,100940.97
2023-04-18T06:13:49.996Z,100928.06
2023-04-18T06:14:30.870Z,100940.50
2023-04-18T06:15:12.006Z,100919.72
2023-04-18T06:15:51.883Z,100939.78
2023-04-18T06:16:32.111Z,100931.41
2023-04-18T06:17:13.858Z,100930.19
2023-04-18T06:17:54.206Z,100940.00
2023-04-18T06:18:34.833Z,100943.56
2023-04-18T06:19:15.082Z,100934.72
2023-04-18T06:19:54.852Z,100937.56
2023-04-18T06:20:34.927Z,100939.06
2023-04-18T06:21:14.860Z,100942.22
2023-04-18T06:21:55.924Z,100933.16
2023-04-18T06:22:36.891Z,100953.91
2023-04-18T06:23:17.027Z,100943.13
2023-04-18T06:23:58.865Z,100945.19
2023-04-18T06:24:39.071Z,100950.13
2023-04-18T06:25:19.821Z,100932.66
2023-04-18T06:25:59.960Z,100920.47
2023-04-18T06:26:40.900Z,100951.34
2023-04-18T06:27:34.848Z,100936.81
2023-04-18T06:28:28.880Z,100958.25
2023-04-18T06:29:24.932Z,100955.53
2023-04-18T06:30:19.827Z,100954.41
2023-04-18T06:31:14.916Z,100950.63
2023-04-18T06:32:04.091Z,100944.34
2023-04-18T06:32:37.971Z,100948.91
2023-04-18T06:33:24.874Z,100949.38
2023-04-18T06:33:58.902Z,100953.06
2023-04-18T06:34:46.860Z,100957.00
2023-04-18T06:35:20.954Z,100956.03
2023-04-18T06:36:07.870Z,100948.88
2023-04-18T06:36:41.932Z,100960.44
2023-04-18T06:37:28.861Z,100936.72
2023-04-18T06:38:02.963Z,100956.25
2023-04-18T06:38:49.842Z,100958.47
2023-04-18T06:39:23.939Z,100965.59
2023-04-18T06:40:11.848Z,100957.97
2023-04-18T06:40:45.942Z,100952.56
2023-04-18T06:41:32.821Z,100957.22
2023-04-18T06:42:06.926Z,100952.56
2023-04-18T06:42:53.806Z,100957.59
2023-04-18T06:43:27.906Z,100956.75
2023-04-18T06:44:14.866Z,100964.38
2023-04-18T06:44:48.991Z,100958.09
2023-04-18T06:45:39.033Z,100962.44
2023-04-18T06:46:13.052Z,100964.28
2023-04-18T06:46:59.809Z,100952.56
2023-04-18T06:47:33.942Z,100964.16
2023-04-18T06:48:15.852Z,100959.44
2023-04-18T06:48:57.165Z,100961.16
2023-04-18T06:49:36.911Z,100959.59
2023-04-18T06:50:16.970Z,100950.75
2023-04-18T06:50:57.882Z,100950.84
2023-04-18T06:51:37.921Z,100967.56
2023-04-18T06:52:17.817Z,100962.44
2023-04-18T06:52:58.148Z,100954.19
2023-04-18T06:53:37.861Z,100965.88
2023-04-18T06:54:17.939Z,100969.19
2023-04-18T06:54:58.844Z,100955.75
2023-04-18T06:55:38.929Z,100963.78
2023-04-18T06:56:18.822Z,100938.31
2023-04-18T06:56:59.934Z,100962.44
2023-04-18T06:57:39.828Z,100953.31
2023-04-18T06:58:19.948Z,100953.91
2023-04-18T06:59:00.811Z,100968.22
2023-04-18T06:59:41.526Z,100972.78
2023-04-18T07:00:22.830Z,100969.06
2023-04-18T07:01:02.984Z,100951.84
2023-04-18T07:01:49.925Z,100962.78
2023-04-18T07:02:29.939Z,100963.16
2023-04-18T07:03:15.944Z,100966.84
2023-04-18T07:03:56.007Z,100969.41
2023-04-18T07:04:35.899Z,100968.28
2023-04-18T07:05:15.928Z,100955.53
2023-04-18T07:05:56.805Z,100964.63
2023-04-18T07:06:36.973Z,100948.91
2023-04-18T07:07:17.828Z,100967.34
2023-04-18T07:07:58.915Z,100959.44
2023-04-18T07:08:40.795Z,100969.19
2023-04-18T07:09:21.053Z,100958.72
2023-04-18T07:10:01.873Z,100973.34
2023-04-18T07:10:42.133Z,100956.38
2023-04-18T07:11:24.839Z,100973.00
2023-04-18T07:12:04.867Z,100978.41
2023-04-18T07:12:44.828Z,100972.34
2023-04-18T07:13:24.947Z,100973.97
2023-04-18T07:14:04.804Z,100978.91
2023-04-18T07:14:45.876Z,100964.00
2023-04-18T07:15:26.805Z,100973.25
2023-04-18T07:16:06.914Z,100973.47
2023-04-18T07:16:46.856Z,100976.53
2023-04-18T07:17:26.885Z,100978.03
2023-04-18T07:18:06.843Z,100977.41
2023-04-18T07:18:46.844Z,100979.25
2023-04-18T07:19:27.734Z,100960.66
2023-04-18T07:20:08.005Z,100976.53
2023-04-18T07:20:47.814Z,100969.56
2023-04-18T07:21:28.024Z,100968.94
2023-04-18T07:22:07.814Z,100983.69
2023-04-18T07:22:48.150Z,100981.09
2023-04-18T07:23:28.771Z,100983.06
2023-04-18T07:24:08.880Z,100980.59
2023-04-18T07:24:50.825Z,100964.84
2023-04-18T07:25:30.907Z,100985.38
2023-04-18T07:26:11.785Z,100965.47
2023-04-18T07:26:54.406Z,100965.34
2023-04-18T07:27:35.826Z,100974.97
2023-04-18T07:28:16.604Z,100981.44
2023-04-18T07:28:57.881Z,100987.25
2023-04-18T07:29:38.956Z,100984.06
2023-04-18T07:30:19.804Z,100989.00
2023-04-18T07:30:59.932Z,100987.63
2023-04-18T07:31:41.843Z,100983.09
2023-04-18T07:32:21.909Z,100972.47
2023-04-18T07:33:02.831Z,100961.66
2023-04-18T07:33:43.452Z,100975.47
2023-04-18T07:34:24.759Z,100982.09
2023-04-18T07:35:05.324Z,100987.66
2023-04-18T07:35:46.823Z,100980.25
2023-04-18T07:36:27.734Z,100985.03
2023-04-18T07:37:07.834Z,100983.09
2023-04-18T07:37:47.842Z,100982.94
2023-04-18T07:38:27.789Z,100984.66
2023-04-18T07:39:08.975Z,100982.56
2023-04-18T07:39:49.778Z,100977.13
2023-04-18T07:40:29.902Z,100981.28
2023-04-18T07:41:10.768Z,100981.81
2023-04-18T07:41:50.960Z,100977.63
2023-04-18T07:42:30.857Z,100976.63
2023-04-18T07:43:10.939Z,100978.94
2023-04-18T07:43:51.765Z,100984.94
2023-04-18T07:44:31.928Z,100985.56
2023-04-18T07:45:12.776Z,100988.09
2023-04-18T07:45:52.921Z,100987.88
2023-04-18T07:46:33.897Z,100965.72
2023-04-18T07:47:15.980Z,100987.38
2023-04-18T07:47:56.862Z,100987.88
2023-04-18T07:48:36.850Z,100987.88
2023-04-18T07:49:16.931Z,100977.56
2023-04-18T07:49:57.406Z,100998.09
2023-04-18T07:50:37.747Z,100984.16
2023-04-18T07:51:18.856Z,100983.78
2023-04-18T07:51:59.726Z,100979.63
2023-04-18T07:52:39.874Z,100980.47
2023-04-18T07:53:20.796Z,100993.22
2023-04-18T07:54:00.887Z,100997.34